createdAt,value
2023-01-08T00:00:01.554Z,100542.81
2023-01-08T00:02:28.594Z,100532.59
2023-01-08T00:04:55.415Z,100536.56
2023-01-08T00:07:22.526Z,100539.72
2023-01-08T00:09:50.499Z,100530.31
2023-01-08T00:12:17.804Z,100517.41
2023-01-08T00:14:44.705Z,100511.72
2023-01-08T00:17:11.603Z,100509.28
2023-01-08T00:19:41.480Z,100503.50
2023-01-08T00:22:08.420Z,100510.97
2023-01-08T00:24:35.509Z,100513.88
2023-01-08T00:27:02.382Z,100509.25
2023-01-08T00:29:29.610Z,100511.94
2023-01-08T00:31:56.651Z,100510.78
2023-01-08T00:34:23.695Z,100501.38
2023-01-08T00:36:50.582Z,100503.72
2023-01-08T00:39:17.802Z,100498.88
2023-01-08T00:41:45.376Z,100491.09
2023-01-08T00:44:12.502Z,100481.66
2023-01-08T00:46:39.557Z,100484.56
2023-01-08T00:49:06.422Z,100484.47
2023-01-08T00:51:33.436Z,100464.38
2023-01-08T00:54:00.324Z,100470.78
2023-01-08T00:56:27.335Z,100466.72
2023-01-08T00:58:54.201Z,100467.19
2023-01-08T01:01:21.109Z,100466.06
2023-01-08T01:03:48.473Z,100464.44
2023-01-08T01:06:15.343Z,100460.06
2023-01-08T01:08:44.191Z,100460.78
2023-01-08T01:11:28.112Z,100471.69
2023-01-08T01:13:56.562Z,100460.69
2023-01-08T01:16:23.858Z,100441.41
2023-01-08T01:18:52.266Z,100450.94
2023-01-08T01:21:23.815Z,100444.69
2023-01-08T01:23:54.792Z,100467.47
2023-01-08T01:26:22.730Z,100471.03
2023-01-08T01:28:52.298Z,100465.94
2023-01-08T01:31:20.492Z,100456.88
2023-01-08T01:33:48.247Z,100459.94
2023-01-08T01:36:18.178Z,100455.88
2023-01-08T01:38:47.471Z,100444.84
2023-01-08T01:41:47.579Z,100454.72
2023-01-08T01:44:40.358Z,100443.59
2023-01-08T01:47:17.202Z,100447.31
2023-01-08T01:50:01.069Z,100445.59
2023-01-08T01:52:32.825Z,100451.06
2023-01-08T01:55:01.768Z,100445.50
2023-01-08T01:57:33.244Z,100443.31
2023-01-08T02:00:04.485Z,100432.63
2023-01-08T02:02:39.069Z,100418.25
2023-01-08T02:05:07.024Z,100422.19
2023-01-08T02:08:00.187Z,100434.16
2023-01-08T02:10:35.063Z,100438.13
2023-01-08T02:13:10.406Z,100423.28
2023-01-08T02:16:08.433Z,100411.78
2023-01-08T02:18:47.427Z,100412.72
2023-01-08T02:22:11.498Z,100414.47
2023-01-08T02:24:53.473Z,100400.41
2023-01-08T02:27:25.484Z,100394.16
2023-01-08T02:29:54.981Z,100386.63
2023-01-08T02:32:34.534Z,100386.88
2023-01-08T02:35:01.516Z,100375.50
2023-01-08T02:37:28.396Z,100370.25
2023-01-08T02:40:26.177Z,100388.69
2023-01-08T02:43:11.327Z,100382.69
2023-01-08T02:45:47.120Z,100376.06
2023-01-08T02:48:42.832Z,100381.41
2023-01-08T02:51:19.661Z,100367.38
2023-01-08T02:53:51.713Z,100363.09
2023-01-08T02:56:24.857Z,100360.91
2023-01-08T02:58:54.032Z,100354.41
2023-01-08T03:01:22.836Z,100361.59
2023-01-08T03:03:56.260Z,100357.41
2023-01-08T03:06:23.709Z,100352.91
2023-01-08T03:08:53.190Z,100347.56
2023-01-08T03:11:23.096Z,100353.00
2023-01-08T03:14:20.697Z,100342.13
2023-01-08T03:17:04.968Z,100339.09
2023-01-08T03:20:01.913Z,100342.25
2023-01-08T03:22:32.617Z,100342.13
2023-01-08T03:24:59.855Z,100347.44
2023-01-08T03:27:31.103Z,100338.88
2023-01-08T03:30:00.149Z,100353.34
2023-01-08T03:32:31.019Z,100340.63
2023-01-08T03:35:00.746Z,100337.94
2023-01-08T03:37:34.562Z,100340.38
2023-01-08T03:40:11.889Z,100324.38
2023-01-08T03:42:39.123Z,100322.75
2023-01-08T03:45:07.405Z,100324.63
2023-01-08T03:47:36.562Z,100313.03
2023-01-08T03:50:08.675Z,100311.75
2023-01-08T03:52:35.634Z,100321.03
2023-01-08T03:55:03.763Z,100319.06
2023-01-08T03:57:30.564Z,100332.16
2023-01-08T03:59:57.694Z,100334.25
2023-01-08T04:02:24.887Z,100331.78
2023-01-08T04:04:51.891Z,100332.81
2023-01-08T04:07:18.987Z,100334.91
2023-01-08T04:09:45.852Z,100325.50
2023-01-08T04:12:13.503Z,100331.66
2023-01-08T04:14:40.542Z,100326.56
2023-01-08T04:17:07.415Z,100320.75
2023-01-08T04:19:34.313Z,100326.31
2023-01-08T04:22:01.174Z,100335.72
2023-01-08T04:24:28.305Z,100326.69
2023-01-08T04:26:55.560Z,100315.59
2023-01-08T04:29:22.599Z,100321.97
2023-01-08T04:31:49.504Z,100337.47
2023-01-08T04:34:16.327Z,100318.59
2023-01-08T04:36:43.344Z,100320.34
2023-01-08T04:39:11.606Z,100302.25
2023-01-08T04:41:38.476Z,100286.25
2023-01-08T04:44:05.728Z,100290.56
2023-01-08T04:46:32.702Z,100296.69
2023-01-08T04:49:00.208Z,100280.69
2023-01-08T04:51:27.307Z,100286.84
2023-01-08T04:53:54.199Z,100287.06
2023-01-08T04:56:21.050Z,100287.41
2023-01-08T04:58:47.995Z,100271.91
2023-01-08T05:01:21.685Z,100279.88
2023-01-08T05:03:59.967Z,100280.34
2023-01-08T05:06:29.394Z,100294.25
2023-01-08T05:08:57.083Z,100276.88
2023-01-08T05:11:24.350Z,100276.66
2023-01-08T05:13:53.228Z,100274.31
2023-01-08T05:16:21.411Z,100274.44
2023-01-08T05:18:48.792Z,100280.69
2023-01-08T05:21:16.438Z,100272.22
2023-01-08T05:23:47.523Z,100269.09
2023-01-08T05:26:15.820Z,100271.88
2023-01-08T05:28:43.175Z,100262.81
2023-01-08T05:31:11.898Z,100272.78
2023-01-08T05:33:39.452Z,100276.25
2023-01-08T05:36:09.567Z,100262.13
2023-01-08T05:38:37.296Z,100273.13
2023-01-08T05:41:05.706Z,100272.53
2023-01-08T05:43:33.349Z,100262.44
2023-01-08T05:46:01.657Z,100263.84
2023-01-08T05:48:30.340Z,100257.22
2023-01-08T05:50:57.422Z,100249.56
2023-01-08T05:53:24.422Z,100248.84
2023-01-08T05:55:51.963Z,100244.44
2023-01-08T05:58:19.376Z,100245.84
2023-01-08T06:00:47.022Z,100239.78
2023-01-08T06:03:13.893Z,100234.47
2023-01-08T06:05:41.102Z,100234.78
2023-01-08T06:08:08.807Z,100232.69
2023-01-08T06:10:38.915Z,100239.75
2023-01-08T06:13:09.988Z,100239.31
2023-01-08T06:15:40.423Z,100231.88
2023-01-08T06:18:07.415Z,100233.72
2023-01-08T06:20:34.648Z,100228.25
2023-01-08T06:23:01.535Z,100228.00
2023-01-08T06:25:29.777Z,100224.84
2023-01-08T06:27:56.659Z,100208.84
2023-01-08T06:30:23.652Z,100219.38
2023-01-08T06:32:50.739Z,100218.88
2023-01-08T06:35:17.728Z,100211.94
2023-01-08T06:37:44.799Z,100219.47
2023-01-08T06:40:12.185Z,100230.94
2023-01-08T06:42:39.452Z,100219.47
2023-01-08T06:45:07.914Z,100207.97
2023-01-08T06:47:35.212Z,100214.69
2023-01-08T06:50:02.380Z,100216.78
2023-01-08T06:52:29.741Z,100221.97
2023-01-08T06:54:56.657Z,100224.41
2023-01-08T06:57:23.828Z,100219.88
2023-01-08T06:59:50.969Z,100225.31
2023-01-08T07:02:19.223Z,100225.88
2023-01-08T07:04:46.846Z,100226.19
2023-01-08T07:07:15.562Z,100228.38
2023-01-08T07:09:42.950Z,100223.03
2023-01-08T07:12:14.321Z,100219.81
2023-01-08T07:14:41.791Z,100219.16
2023-01-08T07:17:08.839Z,100222.88
2023-01-08T07:19:36.091Z,100225.06
2023-01-08T07:22:03.051Z,100222.97
2023-01-08T07:24:29.949Z,100224.34
2023-01-08T07:26:56.996Z,100226.28
2023-01-08T07:29:24.061Z,100230.91
2023-01-08T07:31:50.900Z,100230.91
2023-01-08T07:34:18.151Z,100228.56
2023-01-08T07:36:45.127Z,100228.06
2023-01-08T07:39:12.244Z,100222.00
2023-01-08T07:41:39.123Z,100218.03
2023-01-08T07:44:06.636Z,100223.47
2023-01-08T07:46:33.668Z,100224.03
2023-01-08T07:49:00.843Z,100232.38
2023-01-08T07:51:28.014Z,100239.91
2023-01-08T07:53:56.829Z,100242.09
2023-01-08T07:56:25.277Z,100224.25
2023-01-08T07:58:52.416Z,100230.66
2023-01-08T08:01:19.556Z,100216.75
2023-01-08T08:03:46.808Z,100225.06
2023-01-08T08:06:13.675Z,100218.19
2023-01-08T08:08:42.301Z,100223.53
2023-01-08T08:11:10.029Z,100212.84
2023-01-08T08:13:37.002Z,100217.13
2023-01-08T08:16:05.801Z,100206.44
2023-01-08T08:18:32.761Z,100209.09
2023-01-08T08:20:59.812Z,100204.25
2023-01-08T08:23:26.900Z,100207.75
2023-01-08T08:25:53.872Z,100215.81
2023-01-08T08:28:21.021Z,100217.69
2023-01-08T08:30:48.025Z,100220.38
2023-01-08T08:33:14.941Z,100207.75
2023-01-08T08:35:48.463Z,100207.25
2023-01-08T08:38:15.452Z,100201.09
2023-01-08T08:40:43.374Z,100201.66
2023-01-08T08:43:10.635Z,100193.63
2023-01-08T08:45:38.567Z,100192.09
2023-01-08T08:48:07.397Z,100196.13
2023-01-08T08:50:35.603Z,100190.28
2023-01-08T08:53:05.089Z,100188.41
2023-01-08T08:55:33.167Z,100173.75
2023-01-08T08:58:13.178Z,100182.91
2023-01-08T09:00:43.352Z,100182.97
2023-01-08T09:03:15.578Z,100180.88
2023-01-08T09:05:43.377Z,100184.69
2023-01-08T09:08:11.903Z,100186.59
2023-01-08T09:10:42.238Z,100172.72
2023-01-08T09:13:09.666Z,100165.25
2023-01-08T09:15:38.077Z,100166.38
2023-01-08T09:18:05.985Z,100159.97
2023-01-08T09:20:33.208Z,100141.31
2023-01-08T09:23:01.364Z,100125.06
2023-01-08T09:25:33.535Z,100136.06
2023-01-08T09:28:08.564Z,100162.41
2023-01-08T09:30:36.183Z,100174.47
2023-01-08T09:33:04.226Z,100180.69
2023-01-08T09:35:33.103Z,100186.84
2023-01-08T09:38:00.446Z,100182.56
2023-01-08T09:40:36.040Z,100186.59
2023-01-08T09:43:05.986Z,100191.94
2023-01-08T09:45:38.103Z,100189.84
2023-01-08T09:48:12.985Z,100174.59
2023-01-08T09:50:40.084Z,100189.84
2023-01-08T09:53:14.422Z,100184.72
2023-01-08T09:55:42.494Z,100203.47
2023-01-08T09:58:37.368Z,100194.38
2023-01-08T10:01:05.871Z,100191.94
2023-01-08T10:03:48.475Z,100201.59
2023-01-08T10:06:17.356Z,100194.63
2023-01-08T10:11:16.999Z,100167.88
2023-01-08T10:13:53.628Z,100165.50
2023-01-08T10:16:35.463Z,100147.31
2023-01-08T10:19:04.603Z,100143.63
2023-01-08T10:21:39.836Z,100151.91
2023-01-08T10:24:07.554Z,100137.47
2023-01-08T10:26:37.934Z,100141.22
2023-01-08T10:29:19.241Z,100155.03
2023-01-08T10:31:53.751Z,100147.97
2023-01-08T10:34:51.755Z,100147.16
2023-01-08T10:37:32.728Z,100153.13
2023-01-08T10:40:17.691Z,100150.03
2023-01-08T10:42:46.285Z,100153.38
2023-01-08T10:45:25.495Z,100165.31
2023-01-08T10:47:58.983Z,100145.41
2023-01-08T10:50:32.533Z,100150.19
2023-01-08T10:53:06.177Z,100151.00
2023-01-08T10:55:39.660Z,100138.31
2023-01-08T10:58:09.706Z,100143.72
2023-01-08T11:00:38.032Z,100135.94
2023-01-08T11:03:40.204Z,100142.59
2023-01-08T11:06:13.514Z,100138.88
2023-01-08T11:08:51.600Z,100123.63
2023-01-08T11:11:19.854Z,100109.22
2023-01-08T11:14:01.505Z,100121.28
2023-01-08T11:16:41.484Z,100118.91
2023-01-08T11:19:32.918Z,100110.91
2023-01-08T11:22:19.055Z,100109.84
2023-01-08T11:24:46.849Z,100087.91
2023-01-08T11:27:31.443Z,100098.94
2023-01-08T11:30:13.275Z,100100.31
2023-01-08T11:33:04.832Z,100089.88
2023-01-08T11:35:41.168Z,100088.09
2023-01-08T11:38:12.135Z,100088.09
2023-01-08T11:40:49.751Z,100085.97
2023-01-08T11:44:03.916Z,100078.75
2023-01-08T11:46:44.266Z,100071.47
2023-01-08T11:49:19.351Z,100072.09
2023-01-08T11:52:16.312Z,100075.28
2023-01-08T11:55:03.058Z,100074.72
2023-01-08T11:57:43.413Z,100079.81
2023-01-08T12:00:37.364Z,100081.44
2023-01-08T12:03:31.658Z,100062.22
2023-01-08T12:06:32.492Z,100060.91
2023-01-08T12:09:16.204Z,100051.03
2023-01-08T12:12:03.469Z,100044.31
2023-01-08T12:15:11.841Z,100042.50
2023-01-08T12:18:03.369Z,100041.47
2023-01-08T12:21:10.685Z,100041.22
2023-01-08T12:24:12.508Z,100034.00
2023-01-08T12:27:04.188Z,100038.91
2023-01-08T12:30:03.675Z,100026.63
2023-01-08T12:32:48.046Z,100016.50
2023-01-08T12:35:29.263Z,100025.13
2023-01-08T12:38:02.011Z,100017.97
2023-01-08T12:40:42.127Z,100017.75
2023-01-08T12:43:19.114Z,100020.16
2023-01-08T12:45:48.649Z,100038.69
2023-01-08T12:48:21.080Z,100026.97
2023-01-08T12:51:17.827Z,100033.97
2023-01-08T12:53:59.704Z,100031.59
2023-01-08T12:56:55.804Z,100020.88
2023-01-08T12:59:44.835Z,100015.00
2023-01-08T13:02:47.347Z,100023.84
2023-01-08T13:05:20.992Z,100021.16
2023-01-08T13:08:00.781Z,100010.72
2023-01-08T13:10:52.014Z,100022.00
2023-01-08T13:13:35.587Z,100015.84
2023-01-08T13:16:20.203Z,100020.94
2023-01-08T13:19:01.297Z,100024.19
2023-01-08T13:21:35.767Z,100013.44
2023-01-08T13:24:23.646Z,100014.28
2023-01-08T13:26:50.725Z,100015.06
2023-01-08T13:29:27.245Z,100003.56
2023-01-08T13:31:54.343Z,100008.63
2023-01-08T13:34:37.412Z,100004.31
2023-01-08T13:37:04.769Z,100001.06
2023-01-08T13:39:38.120Z,99992.75
2023-01-08T13:42:28.371Z,99995.13
2023-01-08T13:45:02.295Z,99985.41
2023-01-08T13:47:35.544Z,99998.00
2023-01-08T13:50:20.994Z,99989.09
2023-01-08T13:53:09.875Z,99993.38
2023-01-08T13:55:56.659Z,99989.00
2023-01-08T13:58:32.615Z,99999.06
2023-01-08T14:01:01.462Z,99977.84
2023-01-08T14:03:35.207Z,99991.47
2023-01-08T14:06:23.149Z,99993.03
2023-01-08T14:08:52.404Z,99993.53
2023-01-08T14:11:23.557Z,99985.47
2023-01-08T14:13:50.984Z,99989.97
2023-01-08T14:16:18.249Z,99987.22
2023-01-08T14:18:46.089Z,99977.28
2023-01-08T14:21:15.202Z,99992.09
2023-01-08T14:23:46.700Z,99986.91
2023-01-08T14:26:29.597Z,99984.50
2023-01-08T14:28:56.827Z,99984.38
2023-01-08T14:31:26.965Z,99990.03
2023-01-08T14:33:57.373Z,99986.00
2023-01-08T14:36:24.914Z,99992.16
2023-01-08T14:38:52.380Z,99984.38
2023-01-08T14:41:55.654Z,99988.44
2023-01-08T14:44:36.609Z,99977.63
2023-01-08T14:47:05.607Z,99984.59
2023-01-08T14:49:35.068Z,99995.84
2023-01-08T14:52:02.886Z,99995.84
2023-01-08T14:54:35.708Z,99976.00
2023-01-08T14:57:04.696Z,99976.50
2023-01-08T14:59:37.610Z,99987.25
2023-01-08T15:02:15.720Z,99985.91
2023-01-08T15:04:42.758Z,99976.50
2023-01-08T15:07:27.489Z,99971.16
2023-01-08T15:10:01.636Z,99975.72
2023-01-08T15:12:31.510Z,99968.75
2023-01-08T15:15:31.050Z,99961.78
2023-01-08T15:17:59.294Z,99966.03
2023-01-08T15:20:31.597Z,99954.03
2023-01-08T15:22:59.533Z,99959.06
2023-01-08T15:25:28.826Z,99959.06
2023-01-08T15:28:02.490Z,99961.19
2023-01-08T15:30:39.910Z,99968.69
2023-01-08T15:33:23.642Z,99972.97
2023-01-08T15:35:51.219Z,99963.59
2023-01-08T15:38:23.607Z,99959.00
2023-01-08T15:40:53.199Z,99971.63
2023-01-08T15:43:20.433Z,99961.75
2023-01-08T15:45:50.157Z,99961.75
2023-01-08T15:48:17.697Z,99961.19
2023-01-08T15:50:45.302Z,99963.34
2023-01-08T15:53:22.539Z,99960.88
2023-01-08T15:55:50.761Z,99969.94
2023-01-08T15:58:18.108Z,99968.91
2023-01-08T16:00:46.470Z,99977.47
2023-01-08T16:03:14.871Z,99972.38
2023-01-08T16:05:42.243Z,99972.63
2023-01-08T16:08:10.879Z,99978.84
2023-01-08T16:10:38.175Z,99969.44
2023-01-08T16:13:05.217Z,99974.28
2023-01-08T16:15:32.103Z,99977.78
2023-01-08T16:17:59.729Z,99972.44
2023-01-08T16:20:26.947Z,99976.75
2023-01-08T16:22:54.975Z,99969.50
2023-01-08T16:25:22.079Z,99975.72
2023-01-08T16:27:49.043Z,99965.81
2023-01-08T16:30:16.561Z,99971.72
2023-01-08T16:32:43.732Z,99972.53
2023-01-08T16:35:11.110Z,99955.69
2023-01-08T16:37:39.166Z,99966.63
2023-01-08T16:40:07.255Z,99962.09
2023-01-08T16:42:34.488Z,99952.97
2023-01-08T16:45:01.420Z,99954.88
2023-01-08T16:47:29.134Z,99960.53
2023-01-08T16:49:56.343Z,99952.22
2023-01-08T16:52:23.295Z,99947.38
2023-01-08T16:54:50.747Z,99946.88
2023-01-08T16:57:17.752Z,99948.97
2023-01-08T16:59:45.043Z,99939.66
2023-01-08T17:02:12.271Z,99944.94
2023-01-08T17:04:39.176Z,99941.22
2023-01-08T17:07:07.017Z,99938.81
2023-01-08T17:09:34.777Z,99928.66
2023-01-08T17:12:05.425Z,99928.91
2023-01-08T17:14:32.331Z,99924.38
2023-01-08T17:16:59.156Z,99921.41
2023-01-08T17:19:26.135Z,99925.44
2023-01-08T17:21:53.047Z,99925.44
2023-01-08T17:24:20.216Z,99925.69
2023-01-08T17:26:47.066Z,99923.28
2023-01-08T17:29:14.037Z,99913.09
2023-01-08T17:31:41.378Z,99908.00
2023-01-08T17:34:12.734Z,99906.88
2023-01-08T17:36:39.935Z,99910.06
2023-01-08T17:39:07.440Z,99909.25
2023-01-08T17:41:54.357Z,99919.03
2023-01-08T17:44:21.806Z,99912.03
2023-01-08T17:46:49.089Z,99901.00
2023-01-08T17:49:16.911Z,99903.66
2023-01-08T17:51:45.681Z,99904.16
2023-01-08T17:54:15.105Z,99900.38
2023-01-08T17:56:43.391Z,99904.34
2023-01-08T17:59:14.310Z,99882.94
2023-01-08T18:01:41.833Z,99892.25
2023-01-08T18:04:08.753Z,99887.16
2023-01-08T18:06:36.089Z,99893.81
2023-01-08T18:09:04.119Z,99896.16
2023-01-08T18:11:31.403Z,99892.63
2023-01-08T18:14:01.172Z,99897.72
2023-01-08T18:16:29.675Z,99889.41
2023-01-08T18:18:58.073Z,99890.22
2023-01-08T18:21:26.755Z,99888.09
2023-01-08T18:23:53.761Z,99888.84
2023-01-08T18:26:22.274Z,99885.69
2023-01-08T18:28:50.808Z,99886.19
2023-01-08T18:31:18.095Z,99889.66
2023-01-08T18:33:45.037Z,99888.34
2023-01-08T18:36:13.148Z,99882.75
2023-01-08T18:38:44.928Z,99889.22
2023-01-08T18:41:34.303Z,99892.19
2023-01-08T18:44:03.171Z,99892.44
2023-01-08T18:46:30.031Z,99870.03
2023-01-08T18:48:57.224Z,99865.75
2023-01-08T18:51:24.126Z,99870.59
2023-01-08T18:53:50.999Z,99865.75
2023-01-08T18:56:26.368Z,99870.03
2023-01-08T18:58:53.200Z,99857.44
2023-01-08T19:01:20.534Z,99856.06
2023-01-08T19:03:47.749Z,99848.00
2023-01-08T19:06:16.616Z,99849.06
2023-01-08T19:08:44.882Z,99853.53
2023-01-08T19:11:13.176Z,99856.44
2023-01-08T19:13:40.831Z,99860.19
2023-01-08T19:16:11.482Z,99842.97
2023-01-08T19:18:38.923Z,99864.88
2023-01-08T19:21:13.449Z,99867.00
2023-01-08T19:23:41.170Z,99851.44
2023-01-08T19:26:09.393Z,99844.97
2023-01-08T19:28:37.804Z,99842.31
2023-01-08T19:31:04.946Z,99848.03
2023-01-08T19:33:32.226Z,99847.47
2023-01-08T19:36:11.753Z,99854.19
2023-01-08T19:38:40.253Z,99863.00
2023-01-08T19:41:26.895Z,99851.50
2023-01-08T19:43:55.519Z,99846.97
2023-01-08T19:46:24.583Z,99860.06
2023-01-08T19:48:51.723Z,99851.50
2023-01-08T19:51:19.221Z,99846.75
2023-01-08T19:53:46.193Z,99854.28
2023-01-08T19:56:15.143Z,99840.69
2023-01-08T19:58:43.057Z,99842.31
2023-01-08T20:01:17.545Z,99833.81
2023-01-08T20:03:45.058Z,99826.84
2023-01-08T20:06:20.267Z,99832.19
2023-01-08T20:08:53.140Z,99832.19
2023-01-08T20:11:22.294Z,99834.84
2023-01-08T20:13:51.492Z,99828.16
2023-01-08T20:16:20.590Z,99825.50
2023-01-08T20:18:48.049Z,99815.28
2023-01-08T20:21:18.767Z,99816.59
2023-01-08T20:23:45.878Z,99815.16
2023-01-08T20:26:16.960Z,99806.34
2023-01-08T20:28:45.989Z,99803.06
2023-01-08T20:31:19.264Z,99810.47
2023-01-08T20:33:47.781Z,99801.34
2023-01-08T20:36:19.902Z,99805.81
2023-01-08T20:38:52.455Z,99807.09
2023-01-08T20:41:19.480Z,99801.16
2023-01-08T20:43:47.769Z,99802.44
2023-01-08T20:46:14.888Z,99797.84
2023-01-08T20:48:47.199Z,99788.41
2023-01-08T20:51:14.992Z,99785.75
2023-01-08T20:53:42.398Z,99787.00
2023-01-08T20:56:13.513Z,99786.41
2023-01-08T20:58:44.522Z,99787.16
2023-01-08T21:01:15.873Z,99792.97
2023-01-08T21:03:44.440Z,99788.13
2023-01-08T21:06:20.319Z,99787.56
2023-01-08T21:08:50.429Z,99790.72
2023-01-08T21:11:19.383Z,99787.25
2023-01-08T21:13:47.253Z,99781.13
2023-01-08T21:16:23.062Z,99772.31
2023-01-08T21:18:51.512Z,99768.59
2023-01-08T21:21:22.704Z,99779.03
2023-01-08T21:23:50.602Z,99772.88
2023-01-08T21:26:19.218Z,99774.25
2023-01-08T21:28:47.343Z,99777.78
2023-01-08T21:31:19.897Z,99762.63
2023-01-08T21:33:48.863Z,99750.91
2023-01-08T21:36:21.130Z,99747.50
2023-01-08T21:38:49.048Z,99744.34
2023-01-08T21:41:55.092Z,99740.94
2023-01-08T21:44:43.391Z,99740.69
2023-01-08T21:47:14.846Z,99746.81
2023-01-08T21:49:41.951Z,99746.59
2023-01-08T21:52:28.636Z,99752.22
2023-01-08T21:54:57.979Z,99743.16
2023-01-08T21:57:28.073Z,99740.50
2023-01-08T21:59:55.637Z,99737.34
2023-01-08T22:02:24.414Z,99722.72
2023-01-08T22:04:56.019Z,99715.28
2023-01-08T22:07:24.056Z,99712.06
2023-01-08T22:09:51.019Z,99720.06
2023-01-08T22:12:18.285Z,99716.56
2023-01-08T22:14:45.226Z,99712.59
2023-01-08T22:17:12.617Z,99712.13
2023-01-08T22:19:40.734Z,99710.25
2023-01-08T22:22:10.431Z,99699.84
2023-01-08T22:24:39.537Z,99692.34
2023-01-08T22:27:08.127Z,99691.03
2023-01-08T22:29:37.135Z,99698.22
2023-01-08T22:32:04.930Z,99673.66
2023-01-08T22:34:33.626Z,99693.13
2023-01-08T22:37:01.146Z,99682.97
2023-01-08T22:39:28.503Z,99685.09
2023-01-08T22:41:55.521Z,99674.91
2023-01-08T22:44:22.832Z,99690.09
2023-01-08T22:46:49.879Z,99680.25
2023-01-08T22:49:16.916Z,99682.59
2023-01-08T22:51:44.686Z,99679.44
2023-01-08T22:54:13.461Z,99679.69
2023-01-08T22:56:41.015Z,99672.75
2023-01-08T22:59:08.294Z,99662.59
2023-01-08T23:01:35.384Z,99669.28
2023-01-08T23:04:02.720Z,99673.25
2023-01-08T23:06:31.583Z,99671.88
2023-01-08T23:08:59.246Z,99663.28
2023-01-08T23:11:26.490Z,99652.53
2023-01-08T23:13:53.584Z,99656.75
2023-01-08T23:16:24.619Z,99656.69
2023-01-08T23:18:53.830Z,99640.06
2023-01-08T23:21:23.707Z,99650.09
2023-01-08T23:23:50.819Z,99656.41
2023-01-08T23:26:25.361Z,99641.41
2023-01-08T23:28:54.286Z,99643.19
2023-01-08T23:31:25.893Z,99633.22
2023-01-08T23:33:53.588Z,99636.13
2023-01-08T23:36:21.669Z,99635.72
2023-01-08T23:38:52.173Z,99625.00
2023-01-08T23:41:22.949Z,99623.56
2023-01-08T23:43:50.186Z,99619.78
2023-01-08T23:46:18.102Z,99629.06
2023-01-08T23:48:45.145Z,99615.38
2023-01-08T23:51:12.241Z,99612.31
2023-01-08T23:53:39.263Z,99607.00
2023-01-08T23:56:07.526Z,99606.31
2023-01-08T23:58:35.194Z,99607.13
